createdAt,value
2016-11-12T00:01:05.260Z,4.91
2016-11-12T00:02:19.227Z,4.89
2016-11-12T00:03:33.663Z,4.84
2016-11-12T00:04:47.582Z,4.8
2016-11-12T00:06:01.788Z,4.78
2016-11-12T00:07:15.770Z,4.77
2016-11-12T00:08:30.233Z,4.81
2016-11-12T00:09:58.867Z,4.83
2016-11-12T00:11:13.772Z,4.82
2016-11-12T00:14:12.140Z,4.72
2016-11-12T00:15:26.164Z,4.69
2016-11-12T00:16:40.077Z,4.66
2016-11-12T00:17:54.316Z,4.68
2016-11-12T00:19:10.037Z,4.72
2016-11-12T00:20:24.413Z,4.76
2016-11-12T00:21:39.081Z,4.76
2016-11-12T00:24:24.570Z,4.75
2016-11-12T00:25:38.397Z,4.74
2016-11-12T00:26:52.031Z,4.73
2016-11-12T00:28:06.111Z,4.77
2016-11-12T00:29:20.297Z,4.79
2016-11-12T00:30:34.469Z,4.75
2016-11-12T00:31:48.661Z,4.73
2016-11-12T00:33:02.903Z,4.73
2016-11-12T00:34:16.962Z,4.73
2016-11-12T00:35:30.792Z,4.76
2016-11-12T00:36:44.806Z,4.75
2016-11-12T00:38:01.111Z,4.75
2016-11-12T00:39:16.375Z,4.77
2016-11-12T00:40:30.285Z,4.8
2016-11-12T00:41:44.361Z,4.86
2016-11-12T00:42:59.197Z,4.88
2016-11-12T00:44:14.379Z,4.87
2016-11-12T00:45:28.412Z,4.87
2016-11-12T00:46:46.711Z,4.89
2016-11-12T00:48:22.409Z,4.88
2016-11-12T00:49:36.627Z,4.87
2016-11-12T00:50:51.539Z,4.85
2016-11-12T00:52:06.079Z,4.87
2016-11-12T00:53:22.305Z,4.87
2016-11-12T00:54:37.639Z,4.85
2016-11-12T00:55:52.467Z,4.85
2016-11-12T00:57:06.581Z,4.84
2016-11-12T00:58:22.469Z,4.84
2016-11-12T00:59:37.480Z,4.86
2016-11-12T01:00:51.148Z,4.89
2016-11-12T01:02:05.677Z,4.91
2016-11-12T01:03:19.468Z,4.93
2016-11-12T01:04:33.511Z,4.9
2016-11-12T01:05:47.942Z,4.86
2016-11-12T01:07:02.090Z,4.89
2016-11-12T01:08:16.724Z,4.9
2016-11-12T01:09:30.611Z,4.93
2016-11-12T01:10:45.073Z,4.98
2016-11-12T01:11:59.448Z,5
2016-11-12T01:13:14.554Z,4.98
2016-11-12T01:14:29.008Z,4.92
2016-11-12T01:15:43.742Z,4.89
2016-11-12T01:16:57.822Z,4.89
2016-11-12T01:18:12.552Z,4.89
2016-11-12T01:19:26.711Z,4.91
2016-11-12T01:20:40.509Z,4.91
2016-11-12T01:21:54.433Z,4.94
2016-11-12T01:23:08.147Z,4.96
2016-11-12T01:25:51.444Z,4.93
2016-11-12T01:27:20.351Z,4.91
2016-11-12T01:28:48.813Z,4.94
2016-11-12T01:30:03.414Z,4.98
2016-11-12T01:31:18.476Z,5.03
2016-11-12T01:32:33.180Z,5.06
2016-11-12T01:33:47.957Z,5.13
2016-11-12T01:35:03.197Z,5.17
2016-11-12T01:36:17.643Z,5.2
2016-11-12T01:37:31.964Z,5.24
2016-11-12T01:38:46.076Z,5.29
2016-11-12T01:40:14.844Z,5.35
2016-11-12T01:41:28.950Z,5.35
2016-11-12T01:42:42.893Z,5.34
2016-11-12T01:43:56.402Z,5.35
2016-11-12T01:45:10.041Z,5.37
2016-11-12T01:46:24.252Z,5.38
2016-11-12T01:47:38.360Z,5.39
2016-11-12T01:48:52.313Z,5.37
2016-11-12T01:50:06.264Z,5.31
2016-11-12T01:51:20.256Z,5.28
2016-11-12T01:52:34.264Z,5.27
2016-11-12T01:53:48.743Z,5.29
2016-11-12T01:55:03.136Z,5.24
2016-11-12T01:56:18.863Z,5.22
2016-11-12T01:57:32.987Z,5.21
2016-11-12T01:58:46.950Z,5.23
2016-11-12T02:00:01.551Z,5.27
2016-11-12T02:01:15.474Z,5.3
2016-11-12T02:02:29.280Z,5.34
2016-11-12T02:03:43.342Z,5.35
2016-11-12T02:04:56.916Z,5.35
2016-11-12T02:06:11.475Z,5.38
2016-11-12T02:07:25.532Z,5.42
2016-11-12T02:08:39.334Z,5.47
2016-11-12T02:09:53.144Z,5.53
2016-11-12T02:11:07.540Z,5.6
2016-11-12T02:12:21.735Z,5.66
2016-11-12T02:13:35.985Z,5.73
2016-11-12T02:14:50.022Z,5.78
2016-11-12T02:16:03.716Z,5.83
2016-11-12T02:17:17.825Z,5.88
2016-11-12T02:18:32.415Z,5.92
2016-11-12T02:19:46.698Z,5.9
2016-11-12T02:21:00.316Z,5.87
2016-11-12T02:22:14.428Z,5.85
2016-11-12T02:23:28.611Z,5.83
2016-11-12T02:24:43.140Z,5.76
2016-11-12T02:25:57.733Z,5.72
2016-11-12T02:27:11.407Z,5.7
2016-11-12T02:28:25.629Z,5.71
2016-11-12T02:29:39.392Z,5.68
2016-11-12T02:30:54.289Z,5.66
2016-11-12T02:32:08.553Z,5.64
2016-11-12T02:33:22.677Z,5.58
2016-11-12T02:34:36.867Z,5.5
2016-11-12T02:35:50.489Z,5.43
2016-11-12T02:37:04.584Z,5.37
2016-11-12T02:38:18.475Z,5.3
2016-11-12T02:39:32.616Z,5.27
2016-11-12T02:40:46.375Z,5.28
2016-11-12T02:41:59.981Z,5.27
2016-11-12T02:43:14.376Z,5.29
2016-11-12T02:44:28.128Z,5.32
2016-11-12T02:45:42.223Z,5.35
2016-11-12T02:46:56.046Z,5.39
2016-11-12T02:48:10.224Z,5.35
2016-11-12T02:49:24.266Z,5.33
2016-11-12T02:50:38.087Z,5.34
2016-11-12T02:51:52.545Z,5.35
2016-11-12T02:53:06.398Z,5.36
2016-11-12T02:54:20.391Z,5.34
2016-11-12T02:55:34.524Z,5.34
2016-11-12T02:56:48.701Z,5.36
2016-11-12T02:58:02.293Z,5.38
2016-11-12T02:59:16.248Z,5.37
2016-11-12T03:00:30.044Z,5.37
2016-11-12T03:01:44.700Z,5.32
2016-11-12T03:02:58.877Z,5.24
2016-11-12T03:04:12.699Z,5.14
2016-11-12T03:05:26.829Z,5.05
2016-11-12T03:06:41.075Z,5
2016-11-12T03:07:55.355Z,4.94
2016-11-12T03:09:09.542Z,4.91
2016-11-12T03:10:23.529Z,4.92
2016-11-12T03:11:37.618Z,4.92
2016-11-12T03:12:53.821Z,4.91
2016-11-12T03:14:08.681Z,4.91
2016-11-12T03:15:22.489Z,4.93
2016-11-12T03:16:36.114Z,4.97
2016-11-12T03:17:50.183Z,4.99
2016-11-12T03:19:04.266Z,5.04
2016-11-12T03:20:18.545Z,5.08
2016-11-12T03:21:32.681Z,5.13
2016-11-12T03:22:46.516Z,5.15
2016-11-12T03:24:00.395Z,5.17
2016-11-12T03:25:14.157Z,5.19
2016-11-12T03:26:28.548Z,5.22
2016-11-12T03:27:42.776Z,5.22
2016-11-12T03:28:57.138Z,5.22
2016-11-12T03:30:10.973Z,5.18
2016-11-12T03:31:25.094Z,5.22
2016-11-12T03:32:39.360Z,5.22
2016-11-12T03:34:08.299Z,5.21
2016-11-12T03:35:22.220Z,5.2
2016-11-12T03:36:35.843Z,5.2
2016-11-12T03:37:49.776Z,5.19
2016-11-12T03:39:03.625Z,5.16
2016-11-12T03:40:17.740Z,5.13
2016-11-12T03:41:31.731Z,5.11
2016-11-12T03:42:45.319Z,5.11
2016-11-12T03:43:59.168Z,5.13
2016-11-12T03:45:13.004Z,5.17
2016-11-12T03:46:27.495Z,5.22
2016-11-12T03:47:41.476Z,5.26
2016-11-12T03:48:55.012Z,5.26
2016-11-12T03:50:09.065Z,5.26
2016-11-12T03:51:22.895Z,5.23
2016-11-12T03:52:36.983Z,5.23
2016-11-12T03:53:50.620Z,5.24
2016-11-12T03:55:04.290Z,5.21
2016-11-12T03:56:18.401Z,5.15
2016-11-12T03:57:32.515Z,5.09
2016-11-12T03:58:46.440Z,5.05
2016-11-12T04:00:00.075Z,5.02
2016-11-12T04:01:14.074Z,4.97
2016-11-12T04:02:28.639Z,4.95
2016-11-12T04:03:42.559Z,4.94
2016-11-12T04:04:56.689Z,4.96
2016-11-12T04:06:10.448Z,5
2016-11-12T04:07:24.273Z,5.01
2016-11-12T04:08:38.714Z,4.98
2016-11-12T04:09:52.667Z,4.91
2016-11-12T04:14:04.070Z,4.93
2016-11-12T04:15:18.256Z,4.91
2016-11-12T04:16:32.083Z,4.86
2016-11-12T04:17:45.977Z,4.86
2016-11-12T04:18:59.843Z,4.88
2016-11-12T04:20:14.645Z,4.89
2016-11-12T04:21:29.313Z,4.88
2016-11-12T04:22:43.204Z,4.87
2016-11-12T04:23:57.004Z,4.89
2016-11-12T04:25:10.868Z,4.89
2016-11-12T04:26:25.391Z,4.92
2016-11-12T04:27:39.959Z,4.93
2016-11-12T04:28:53.749Z,4.97
2016-11-12T04:30:07.617Z,4.98
2016-11-12T04:31:23.687Z,5.02
2016-11-12T04:32:37.621Z,5.06
2016-11-12T04:33:52.333Z,5.12
2016-11-12T04:35:06.336Z,5.19
2016-11-12T04:39:17.440Z,5.28
2016-11-12T04:40:31.928Z,5.35
2016-11-12T04:41:46.073Z,5.42
2016-11-12T04:42:59.902Z,5.45
2016-11-12T04:44:13.752Z,5.49
2016-11-12T04:45:28.156Z,5.51
2016-11-12T04:46:42.957Z,5.48
2016-11-12T04:47:57.282Z,5.42
2016-11-12T04:49:11.682Z,5.36
2016-11-12T04:50:26.563Z,5.29
2016-11-12T04:51:40.480Z,5.23
2016-11-12T04:52:54.773Z,5.18
2016-11-12T04:54:08.804Z,5.17
2016-11-12T04:55:23.192Z,5.16
2016-11-12T04:56:37.516Z,5.18
2016-11-12T04:57:51.274Z,5.18
2016-11-12T04:59:06.248Z,5.19
2016-11-12T05:00:20.123Z,5.19
2016-11-12T05:01:33.864Z,5.21
2016-11-12T05:03:02.651Z,5.23
2016-11-12T05:04:16.967Z,5.27
2016-11-12T05:05:31.007Z,5.3
2016-11-12T05:06:45.941Z,5.32
2016-11-12T05:07:59.842Z,5.36
2016-11-12T05:09:13.851Z,5.38
2016-11-12T05:10:28.099Z,5.41
2016-11-12T05:11:42.365Z,5.43
2016-11-12T05:12:56.493Z,5.37
2016-11-12T05:14:11.123Z,5.37
2016-11-12T05:15:25.048Z,5.36
2016-11-12T05:16:39.175Z,5.33
2016-11-12T05:17:53.615Z,5.3
2016-11-12T05:19:07.732Z,5.29
2016-11-12T05:20:21.506Z,5.29
2016-11-12T05:21:35.366Z,5.32
2016-11-12T05:22:50.378Z,5.36
2016-11-12T05:24:04.477Z,5.41
2016-11-12T05:25:18.342Z,5.46
2016-11-12T05:26:32.163Z,5.5
2016-11-12T05:27:45.954Z,5.52
2016-11-12T05:29:00.288Z,5.55
2016-11-12T05:30:14.420Z,5.58
2016-11-12T05:31:28.245Z,5.62
2016-11-12T05:32:42.120Z,5.62
2016-11-12T05:33:56.312Z,5.6
2016-11-12T05:35:10.562Z,5.55
2016-11-12T05:36:24.683Z,5.55
2016-11-12T05:37:38.438Z,5.56
2016-11-12T05:38:52.895Z,5.55
2016-11-12T05:40:07.167Z,5.56
2016-11-12T05:41:21.479Z,5.55
2016-11-12T05:42:35.752Z,5.57
2016-11-12T05:43:49.652Z,5.58
2016-11-12T05:45:03.963Z,5.57
2016-11-12T05:46:17.894Z,5.56
2016-11-12T05:47:46.787Z,5.54
2016-11-12T05:49:00.911Z,5.52
2016-11-12T05:50:17.214Z,5.51
2016-11-12T05:51:31.782Z,5.5
2016-11-12T05:53:00.576Z,5.51
2016-11-12T05:54:15.498Z,5.51
2016-11-12T05:55:29.585Z,5.52
2016-11-12T05:56:43.361Z,5.56
2016-11-12T05:57:57.578Z,5.56
2016-11-12T05:59:11.520Z,5.5
2016-11-12T06:00:26.084Z,5.45
2016-11-12T06:01:41.143Z,5.42
2016-11-12T06:02:55.829Z,5.4
2016-11-12T06:04:09.858Z,5.38
2016-11-12T06:05:23.983Z,5.38
2016-11-12T06:06:38.068Z,5.4
2016-11-12T06:07:53.964Z,5.42
2016-11-12T06:09:16.403Z,5.43
2016-11-12T06:10:31.089Z,5.45
2016-11-12T06:11:46.655Z,5.43
2016-11-12T06:13:01.231Z,5.37
2016-11-12T06:14:15.354Z,5.29
2016-11-12T06:15:29.365Z,5.22
2016-11-12T06:16:43.388Z,5.16
2016-11-12T06:18:02.873Z,5.11
2016-11-12T06:19:25.998Z,5.11
2016-11-12T06:20:47.084Z,5.13
2016-11-12T06:22:23.417Z,5.14
2016-11-12T06:23:45.687Z,5.18
2016-11-12T06:25:01.253Z,5.2
2016-11-12T06:26:16.111Z,5.22
2016-11-12T06:27:30.735Z,5.22
2016-11-12T06:28:45.464Z,5.22
2016-11-12T06:30:00.373Z,5.23
2016-11-12T06:31:15.364Z,5.24
2016-11-12T06:32:30.901Z,5.22
2016-11-12T06:33:45.478Z,5.24
2016-11-12T06:35:01.247Z,5.27
2016-11-12T06:36:19.536Z,5.32
2016-11-12T06:37:33.647Z,5.35
2016-11-12T06:38:48.416Z,5.38
2016-11-12T06:40:02.408Z,5.38
2016-11-12T06:41:16.790Z,5.38
2016-11-12T06:42:31.557Z,5.36
2016-11-12T06:43:45.774Z,5.34
2016-11-12T06:45:00.318Z,5.34
2016-11-12T06:46:16.432Z,5.32
2016-11-12T06:47:30.445Z,5.3
2016-11-12T06:48:44.830Z,5.3
2016-11-12T06:50:00.139Z,5.27
2016-11-12T06:51:14.367Z,5.19
2016-11-12T06:52:29.479Z,5.16
2016-11-12T06:53:45.521Z,5.11
2016-11-12T06:55:03.558Z,5.1
2016-11-12T06:56:21.249Z,5.11
2016-11-12T06:57:35.842Z,5.09
2016-11-12T06:58:50.216Z,5.1
2016-11-12T07:00:04.046Z,5.12
2016-11-12T07:01:18.211Z,5.09
2016-11-12T07:02:32.589Z,5.07
2016-11-12T07:03:46.606Z,5.05
2016-11-12T07:05:00.495Z,4.99
2016-11-12T07:07:58.384Z,4.93
2016-11-12T07:09:14.931Z,4.94
2016-11-12T07:10:28.502Z,4.94
2016-11-12T07:13:11.981Z,4.92
2016-11-12T07:14:26.265Z,4.94
2016-11-12T07:15:40.626Z,4.96
2016-11-12T07:16:54.739Z,5
2016-11-12T07:18:08.815Z,5.03
2016-11-12T07:19:23.592Z,5.04
2016-11-12T07:20:37.751Z,5.07
2016-11-12T07:22:06.345Z,5.12
2016-11-12T07:23:20.494Z,5.16
2016-11-12T07:24:34.396Z,5.19
2016-11-12T07:26:03.105Z,5.21
2016-11-12T07:28:45.654Z,5.24
2016-11-12T07:29:59.839Z,5.22
2016-11-12T07:31:13.382Z,5.22
2016-11-12T07:32:27.694Z,5.22
2016-11-12T07:33:41.414Z,5.24
2016-11-12T07:35:09.769Z,5.29
2016-11-12T07:36:23.785Z,5.27
2016-11-12T07:37:38.332Z,5.25
2016-11-12T07:38:55.032Z,5.23
2016-11-12T07:40:08.813Z,5.26
2016-11-12T07:41:22.561Z,5.19
2016-11-12T07:42:36.719Z,5.17
2016-11-12T07:44:05.407Z,5.19
2016-11-12T07:45:19.257Z,5.26
2016-11-12T07:46:33.233Z,5.28
2016-11-12T07:47:47.321Z,5.27
2016-11-12T07:49:01.103Z,5.27
2016-11-12T07:50:15.330Z,5.26
2016-11-12T07:51:28.912Z,5.24
2016-11-12T07:52:42.850Z,5.22
2016-11-12T07:54:11.573Z,5.25
2016-11-12T07:55:25.504Z,5.35
2016-11-12T07:56:39.573Z,5.46
2016-11-12T07:57:53.650Z,5.52
2016-11-12T07:59:08.239Z,5.59
2016-11-12T08:00:21.958Z,5.62
2016-11-12T08:01:35.717Z,5.63
2016-11-12T08:02:49.710Z,5.61
2016-11-12T08:04:03.668Z,5.57
2016-11-12T08:05:17.726Z,5.55
2016-11-12T08:06:31.705Z,5.54
2016-11-12T08:07:45.504Z,5.51
2016-11-12T08:08:59.787Z,5.49
2016-11-12T08:10:14.041Z,5.48
2016-11-12T08:11:27.944Z,5.51
2016-11-12T08:12:41.578Z,5.51
2016-11-12T08:14:10.559Z,5.5
2016-11-12T08:15:24.637Z,5.45
2016-11-12T08:16:38.496Z,5.44
2016-11-12T08:17:52.024Z,5.48
2016-11-12T08:19:05.618Z,5.49
2016-11-12T08:20:19.825Z,5.52
2016-11-12T08:21:33.883Z,5.59
2016-11-12T08:22:48.129Z,5.68
2016-11-12T08:24:02.040Z,5.79
2016-11-12T08:25:15.962Z,5.84
2016-11-12T08:26:29.527Z,5.92
2016-11-12T08:27:45.943Z,6.01
2016-11-12T08:29:00.194Z,6.08
2016-11-12T08:30:14.638Z,6.13
2016-11-12T08:31:28.827Z,6.21
2016-11-12T08:32:42.750Z,6.33
2016-11-12T08:36:14.596Z,6.6
2016-11-12T08:37:28.408Z,6.63
2016-11-12T08:38:42.443Z,6.64
2016-11-12T08:39:56.218Z,6.67
2016-11-12T08:41:11.262Z,6.68
2016-11-12T08:42:25.732Z,6.67
2016-11-12T08:43:40.813Z,6.63
2016-11-12T08:44:54.696Z,6.56
2016-11-12T08:46:08.552Z,6.52
2016-11-12T08:47:22.861Z,6.51
2016-11-12T08:48:36.895Z,6.54
2016-11-12T08:49:50.851Z,6.58
2016-11-12T08:51:04.692Z,6.65
2016-11-12T08:52:18.553Z,6.72
2016-11-12T08:53:32.184Z,6.73
2016-11-12T08:54:47.034Z,6.72
2016-11-12T08:56:00.987Z,6.7
2016-11-12T08:57:14.801Z,6.63
2016-11-12T08:58:28.646Z,6.62
2016-11-12T08:59:42.618Z,6.62
2016-11-12T09:00:56.766Z,6.66
2016-11-12T09:02:10.905Z,6.64
2016-11-12T09:03:25.059Z,6.63
2016-11-12T09:04:39.001Z,6.64
2016-11-12T09:05:52.608Z,6.69
2016-11-12T09:07:06.968Z,6.76
2016-11-12T09:08:21.131Z,6.82
2016-11-12T09:09:34.960Z,6.84
2016-11-12T09:10:49.044Z,6.88
2016-11-12T09:12:02.841Z,6.84
2016-11-12T09:13:31.718Z,6.84
2016-11-12T09:15:15.582Z,6.85
2016-11-12T09:16:58.928Z,6.87
2016-11-12T09:18:12.514Z,6.9
2016-11-12T09:19:26.332Z,6.9
2016-11-12T09:20:40.211Z,6.88
2016-11-12T09:21:54.905Z,6.88
2016-11-12T09:23:08.556Z,6.91
2016-11-12T09:24:22.377Z,6.97
2016-11-12T09:25:37.059Z,7.04
2016-11-12T09:26:50.878Z,7.01
2016-11-12T09:28:05.230Z,7.02
2016-11-12T09:30:48.011Z,7.16
2016-11-12T09:32:01.723Z,7.25
2016-11-12T09:33:15.665Z,7.35
2016-11-12T09:34:29.718Z,7.41
2016-11-12T09:37:12.478Z,7.49
2016-11-12T09:38:26.378Z,7.48
2016-11-12T09:39:40.244Z,7.46
2016-11-12T09:40:53.881Z,7.45
2016-11-12T09:42:08.022Z,7.46
2016-11-12T09:43:36.863Z,7.5
2016-11-12T09:44:50.342Z,7.55
2016-11-12T09:46:03.930Z,7.57
2016-11-12T09:47:34.996Z,7.56
2016-11-12T09:48:49.325Z,7.56
2016-11-12T09:50:04.044Z,7.6
2016-11-12T09:51:18.320Z,7.62
2016-11-12T09:52:32.149Z,7.64
2016-11-12T09:53:45.772Z,7.64
2016-11-12T09:55:00.206Z,7.62
2016-11-12T09:56:14.375Z,7.61
2016-11-12T09:57:43.377Z,7.59
2016-11-12T09:58:57.042Z,7.57
2016-11-12T10:00:10.769Z,7.57
2016-11-12T10:01:25.355Z,7.59
2016-11-12T10:02:39.375Z,7.6
2016-11-12T10:03:53.447Z,7.6
2016-11-12T10:05:08.084Z,7.62
2016-11-12T10:06:22.155Z,7.66
2016-11-12T10:07:36.661Z,7.7
2016-11-12T10:08:51.136Z,7.68
2016-11-12T10:10:05.006Z,7.67
2016-11-12T10:11:18.863Z,7.68
2016-11-12T10:12:33.081Z,7.71
2016-11-12T10:14:01.965Z,7.74
2016-11-12T10:15:16.468Z,7.78
2016-11-12T10:16:30.297Z,7.78
2016-11-12T10:17:44.002Z,7.74
2016-11-12T10:18:57.764Z,7.71
2016-11-12T10:20:11.645Z,7.71
2016-11-12T10:21:26.801Z,7.69
2016-11-12T10:22:40.953Z,7.69
2016-11-12T10:28:50.653Z,7.84
2016-11-12T10:30:04.557Z,7.83
2016-11-12T10:31:18.181Z,7.82
2016-11-12T10:32:31.845Z,7.84
2016-11-12T10:33:45.701Z,7.9
2016-11-12T10:34:59.488Z,7.94
2016-11-12T10:36:13.127Z,7.97
2016-11-12T10:37:27.689Z,7.96
2016-11-12T10:38:41.724Z,7.99
2016-11-12T10:39:55.508Z,8.03
2016-11-12T10:41:10.756Z,8.06
2016-11-12T10:42:24.511Z,8.13
2016-11-12T10:43:54.232Z,8.25
2016-11-12T10:45:08.904Z,8.32
2016-11-12T10:46:22.858Z,8.39
2016-11-12T10:47:37.129Z,8.44
2016-11-12T10:48:50.958Z,8.47
2016-11-12T10:50:04.813Z,8.44
2016-11-12T10:51:18.420Z,8.37
2016-11-12T10:52:32.466Z,8.3
2016-11-12T10:53:46.427Z,8.24
2016-11-12T10:54:59.943Z,8.23
2016-11-12T10:56:13.939Z,8.2
2016-11-12T10:57:27.634Z,8.2
2016-11-12T10:58:41.908Z,8.23
2016-11-12T10:59:56.110Z,8.24
2016-11-12T11:01:10.252Z,8.27
2016-11-12T11:02:24.666Z,8.28
2016-11-12T11:03:53.121Z,8.29
2016-11-12T11:05:07.337Z,8.3
2016-11-12T11:06:21.285Z,8.25
2016-11-12T11:07:37.731Z,8.19
2016-11-12T11:08:52.618Z,8.18
2016-11-12T11:10:06.390Z,8.21
2016-11-12T11:11:20.467Z,8.29
2016-11-12T11:12:34.433Z,8.39
2016-11-12T11:13:48.312Z,8.48
2016-11-12T11:15:02.920Z,8.52
2016-11-12T11:16:17.075Z,8.53
2016-11-12T11:17:31.866Z,8.53
2016-11-12T11:18:45.487Z,8.51
2016-11-12T11:20:00.057Z,8.51
2016-11-12T11:21:14.193Z,8.49
2016-11-12T11:22:28.604Z,8.5
2016-11-12T11:23:43.016Z,8.51
2016-11-12T11:24:56.677Z,8.52
2016-11-12T11:26:10.451Z,8.51
2016-11-12T11:27:24.300Z,8.5
2016-11-12T11:28:39.174Z,8.49
2016-11-12T11:29:53.820Z,8.5
2016-11-12T11:31:08.442Z,8.48
2016-11-12T11:32:22.563Z,8.46
2016-11-12T11:33:37.824Z,8.46
2016-11-12T11:34:52.101Z,8.46
2016-11-12T11:36:07.073Z,8.46
2016-11-12T11:37:23.311Z,8.46
2016-11-12T11:38:38.080Z,8.47
2016-11-12T11:39:52.962Z,8.42
2016-11-12T11:41:08.322Z,8.39
2016-11-12T11:42:24.492Z,8.4
2016-11-12T11:43:39.207Z,8.43
2016-11-12T11:44:53.587Z,8.48
2016-11-12T11:46:07.427Z,8.51
2016-11-12T11:47:22.842Z,8.59
2016-11-12T11:48:38.268Z,8.64
2016-11-12T11:49:52.969Z,8.68
2016-11-12T11:51:08.431Z,8.71
2016-11-12T11:52:23.165Z,8.71
2016-11-12T11:53:38.995Z,8.72
2016-11-12T11:54:52.943Z,8.78
2016-11-12T11:56:07.597Z,8.86
2016-11-12T11:57:21.127Z,8.92
2016-11-12T11:58:34.951Z,8.95
2016-11-12T11:59:48.500Z,8.98
2016-11-12T12:01:02.779Z,8.97
2016-11-12T12:02:17.230Z,8.95
2016-11-12T12:03:31.295Z,8.92
2016-11-12T12:04:45.047Z,8.91
2016-11-12T12:05:59.622Z,8.87
2016-11-12T12:07:13.511Z,8.86
2016-11-12T12:08:27.170Z,8.85
2016-11-12T12:09:40.714Z,8.82
2016-11-12T12:10:54.681Z,8.75
2016-11-12T12:12:08.582Z,8.66
2016-11-12T12:13:22.325Z,8.59
2016-11-12T12:14:36.887Z,8.55
2016-11-12T12:15:50.503Z,8.51
2016-11-12T12:17:04.429Z,8.53
2016-11-12T12:18:18.013Z,8.55
2016-11-12T12:19:31.803Z,8.53
2016-11-12T12:21:00.134Z,8.54
2016-11-12T12:22:14.368Z,8.54
2016-11-12T12:23:28.607Z,8.54
2016-11-12T12:24:44.807Z,8.54
2016-11-12T12:26:13.178Z,8.56
2016-11-12T12:27:27.193Z,8.56
2016-11-12T12:28:40.680Z,8.58
2016-11-12T12:30:20.430Z,8.59
2016-11-12T12:31:48.779Z,8.64
2016-11-12T12:33:02.317Z,8.65
2016-11-12T12:34:15.834Z,8.65
2016-11-12T12:35:30.778Z,8.67
2016-11-12T12:36:44.438Z,8.69
2016-11-12T12:37:58.164Z,8.68
2016-11-12T12:39:12.159Z,8.66
2016-11-12T12:40:25.817Z,8.65
2016-11-12T12:41:39.845Z,8.64
2016-11-12T12:42:54.584Z,8.61
2016-11-12T12:44:08.573Z,8.61
2016-11-12T12:45:22.847Z,8.62
2016-11-12T12:46:36.767Z,8.64
2016-11-12T12:47:50.476Z,8.67
2016-11-12T12:49:04.727Z,8.68
2016-11-12T12:50:18.802Z,8.67
2016-11-12T12:51:33.339Z,8.69
2016-11-12T12:52:47.422Z,8.65
2016-11-12T12:54:02.022Z,8.64
2016-11-12T12:55:16.000Z,8.66
2016-11-12T12:56:30.355Z,8.68
2016-11-12T12:57:44.483Z,8.73
2016-11-12T12:58:58.380Z,8.76
2016-11-12T13:00:12.361Z,8.79
2016-11-12T13:01:26.327Z,8.81
2016-11-12T13:02:40.557Z,8.84
2016-11-12T13:03:54.441Z,8.86
2016-11-12T13:05:08.652Z,8.88
2016-11-12T13:06:22.966Z,8.93
2016-11-12T13:07:37.287Z,8.95
2016-11-12T13:08:51.986Z,8.93
2016-11-12T13:10:07.111Z,8.93
2016-11-12T13:11:22.519Z,8.9
2016-11-12T13:12:36.887Z,8.86
2016-11-12T13:13:50.938Z,8.83
2016-11-12T13:15:05.951Z,8.83
2016-11-12T13:16:20.813Z,8.85
2016-11-12T13:17:34.798Z,8.88
2016-11-12T13:18:49.051Z,8.93
2016-11-12T13:20:03.152Z,8.98
2016-11-12T13:21:17.221Z,9.03
2016-11-12T13:22:31.179Z,9.07
2016-11-12T13:24:00.165Z,9.1
2016-11-12T13:25:15.350Z,9.13
2016-11-12T13:26:29.779Z,9.14
2016-11-12T13:27:44.639Z,9.14
2016-11-12T13:28:59.913Z,9.11
2016-11-12T13:30:14.082Z,9.08
2016-11-12T13:31:30.063Z,9.04
2016-11-12T13:32:44.165Z,9.01
2016-11-12T13:33:59.083Z,9.01
2016-11-12T13:35:14.708Z,9
2016-11-12T13:36:29.332Z,9.01
2016-11-12T13:37:43.750Z,9.03
2016-11-12T13:38:57.774Z,9.06
2016-11-12T13:40:12.097Z,9.07
2016-11-12T13:41:26.306Z,9.07
2016-11-12T13:42:44.072Z,9.07
2016-11-12T13:43:58.665Z,9.07
2016-11-12T13:45:13.836Z,9.05
2016-11-12T13:46:28.588Z,9.03
2016-11-12T13:47:43.289Z,8.95
2016-11-12T13:48:57.732Z,8.84
2016-11-12T13:50:12.760Z,8.75
2016-11-12T13:51:26.882Z,8.67
2016-11-12T13:52:42.588Z,8.62
2016-11-12T13:53:56.712Z,8.6
2016-11-12T13:55:10.615Z,8.6
2016-11-12T13:56:24.773Z,8.59
2016-11-12T13:57:38.849Z,8.58
2016-11-12T14:00:22.398Z,8.58
2016-11-12T14:01:37.079Z,8.58
2016-11-12T14:02:51.867Z,8.59
2016-11-12T14:04:05.784Z,8.56
2016-11-12T14:05:20.213Z,8.51
2016-11-12T14:06:34.356Z,8.46
2016-11-12T14:07:48.616Z,8.4
2016-11-12T14:09:03.026Z,8.35
2016-11-12T14:10:17.633Z,8.31
2016-11-12T14:11:33.175Z,8.27
2016-11-12T14:12:47.924Z,8.21
2016-11-12T14:14:17.476Z,8.17
2016-11-12T14:15:32.888Z,8.13
2016-11-12T14:16:47.436Z,8.12
2016-11-12T14:18:02.689Z,8.11
2016-11-12T14:19:18.433Z,8.09
2016-11-12T14:20:47.796Z,8.02
2016-11-12T14:22:01.447Z,7.97
2016-11-12T14:23:16.135Z,7.95
2016-11-12T14:24:30.045Z,7.93
2016-11-12T14:25:44.208Z,7.91
2016-11-12T14:27:00.247Z,7.88
2016-11-12T14:28:15.912Z,7.89
2016-11-12T14:29:33.811Z,7.88
2016-11-12T14:30:50.536Z,7.88
2016-11-12T14:32:08.843Z,7.88
2016-11-12T14:33:27.941Z,7.89
2016-11-12T14:34:41.898Z,7.89
2016-11-12T14:35:56.391Z,7.89
2016-11-12T14:37:10.900Z,7.89
2016-11-12T14:38:25.035Z,7.9
2016-11-12T14:39:54.723Z,7.89
2016-11-12T14:41:08.936Z,7.87
2016-11-12T14:42:23.682Z,7.84
2016-11-12T14:43:38.014Z,7.83
2016-11-12T14:44:52.276Z,7.82
2016-11-12T14:46:06.295Z,7.79
2016-11-12T14:47:20.369Z,7.78
2016-11-12T14:48:34.157Z,7.76
2016-11-12T14:49:48.148Z,7.74
2016-11-12T14:51:02.688Z,7.72
2016-11-12T14:52:17.030Z,7.69
2016-11-12T14:53:31.461Z,7.66
2016-11-12T14:54:45.310Z,7.62
2016-11-12T14:55:59.266Z,7.59
2016-11-12T14:57:13.290Z,7.55
2016-11-12T14:58:27.583Z,7.51
2016-11-12T14:59:41.247Z,7.48
2016-11-12T15:01:12.497Z,7.42
2016-11-12T15:02:26.799Z,7.35
2016-11-12T15:03:41.150Z,7.31
2016-11-12T15:06:38.623Z,7.23
2016-11-12T15:07:53.372Z,7.18
2016-11-12T15:09:07.798Z,7.14
2016-11-12T15:10:22.073Z,7.11
2016-11-12T15:11:36.717Z,7.08
2016-11-12T15:12:50.684Z,7.04
2016-11-12T15:14:04.906Z,7
2016-11-12T15:15:19.506Z,6.96
2016-11-12T15:16:33.534Z,6.94
2016-11-12T15:17:47.284Z,6.91
2016-11-12T15:19:01.404Z,6.89
2016-11-12T15:20:15.429Z,6.86
2016-11-12T15:21:29.733Z,6.81
2016-11-12T15:22:43.619Z,6.77
2016-11-12T15:23:57.875Z,6.75
2016-11-12T15:25:13.116Z,6.71
2016-11-12T15:26:26.918Z,6.68
2016-11-12T15:27:41.015Z,6.61
2016-11-12T15:28:55.638Z,6.55
2016-11-12T15:30:10.338Z,6.5
2016-11-12T15:31:24.993Z,6.43
2016-11-12T15:32:39.253Z,6.38
2016-11-12T15:35:22.651Z,6.27
2016-11-12T15:36:37.341Z,6.22
2016-11-12T15:37:51.119Z,6.18
2016-11-12T15:39:05.895Z,6.13
2016-11-12T15:40:19.524Z,6.11
2016-11-12T15:41:33.389Z,6.09
2016-11-12T15:42:48.397Z,6.05
2016-11-12T15:44:02.971Z,6.03
2016-11-12T15:45:17.471Z,6.01
2016-11-12T15:46:31.682Z,6.02
2016-11-12T15:47:46.126Z,6.02
2016-11-12T15:49:00.105Z,6.02
2016-11-12T15:50:13.820Z,6.04
2016-11-12T15:51:28.342Z,6.04
2016-11-12T15:52:42.636Z,6.04
2016-11-12T15:53:57.206Z,5.99
2016-11-12T15:55:11.314Z,5.95
2016-11-12T15:56:25.357Z,5.92
2016-11-12T15:57:40.399Z,5.85
2016-11-12T15:58:55.338Z,5.8
2016-11-12T16:00:09.135Z,5.74
2016-11-12T16:01:23.237Z,5.72
2016-11-12T16:02:37.300Z,5.68
2016-11-12T16:03:51.195Z,5.67
2016-11-12T16:05:04.885Z,5.63
2016-11-12T16:06:19.750Z,5.6
2016-11-12T16:07:33.974Z,5.61
2016-11-12T16:08:48.765Z,5.64
2016-11-12T16:10:03.255Z,5.65
2016-11-12T16:11:31.750Z,5.64
2016-11-12T16:12:45.821Z,5.61
2016-11-12T16:14:00.437Z,5.59
2016-11-12T16:15:15.863Z,5.59
2016-11-12T16:16:29.882Z,5.61
2016-11-12T16:17:43.732Z,5.62
2016-11-12T16:19:00.904Z,5.62
2016-11-12T16:20:15.239Z,5.63
2016-11-12T16:21:29.675Z,5.62
2016-11-12T16:22:43.290Z,5.61
2016-11-12T16:23:56.817Z,5.6
2016-11-12T16:25:10.644Z,5.6
2016-11-12T16:26:24.687Z,5.6
2016-11-12T16:27:39.705Z,5.61
2016-11-12T16:28:54.283Z,5.63
2016-11-12T16:30:08.107Z,5.64
2016-11-12T16:31:23.283Z,5.64
2016-11-12T16:32:37.216Z,5.63
2016-11-12T16:33:52.126Z,5.63
2016-11-12T16:35:05.922Z,5.63
2016-11-12T16:36:20.269Z,5.64
2016-11-12T16:37:34.464Z,5.56
2016-11-12T16:38:48.682Z,5.51
2016-11-12T16:40:03.988Z,5.42
2016-11-12T16:41:18.822Z,5.38
2016-11-12T16:42:33.107Z,5.35
2016-11-12T16:43:47.003Z,5.35
2016-11-12T16:45:01.687Z,5.35
2016-11-12T16:46:17.265Z,5.36
2016-11-12T16:47:31.375Z,5.35
2016-11-12T16:48:45.481Z,5.35
2016-11-12T16:49:59.300Z,5.33
2016-11-12T16:51:13.960Z,5.32
2016-11-12T16:52:28.007Z,5.29
2016-11-12T16:53:41.824Z,5.3
2016-11-12T16:54:55.526Z,5.3
2016-11-12T16:56:09.468Z,5.3
2016-11-12T16:57:23.290Z,5.29
2016-11-12T16:58:38.187Z,5.28
2016-11-12T16:59:52.313Z,5.25
2016-11-12T17:01:06.903Z,5.19
2016-11-12T17:02:20.778Z,5.11
2016-11-12T17:03:34.689Z,5.06
2016-11-12T17:04:49.039Z,4.98
2016-11-12T17:06:02.957Z,4.93
2016-11-12T17:07:18.169Z,4.94
2016-11-12T17:08:33.180Z,4.96
2016-11-12T17:09:46.699Z,4.94
2016-11-12T17:11:00.809Z,4.96
2016-11-12T17:12:14.451Z,4.97
2016-11-12T17:13:28.843Z,4.97